createdAt,value
2023-02-18T00:00:01.176Z,12.39
2023-02-18T00:01:01.084Z,12.39
2023-02-18T00:02:00.691Z,12.40
2023-02-18T00:03:00.735Z,12.40
2023-02-18T00:04:00.736Z,12.40
2023-02-18T00:05:00.704Z,12.40
2023-02-18T00:06:09.146Z,12.40
2023-02-18T00:07:00.711Z,12.31
2023-02-18T00:08:00.705Z,12.31
2023-02-18T00:09:01.004Z,12.31
2023-02-18T00:10:01.109Z,12.31
2023-02-18T00:11:00.699Z,12.31
2023-02-18T00:12:00.702Z,12.34
2023-02-18T00:13:00.765Z,12.34
2023-02-18T00:14:01.842Z,12.34
2023-02-18T00:15:00.702Z,12.34
2023-02-18T00:16:01.384Z,12.34
2023-02-18T00:17:00.708Z,12.27
2023-02-18T00:18:00.696Z,12.27
2023-02-18T00:19:02.866Z,12.27
2023-02-18T00:20:00.699Z,12.27
2023-02-18T00:21:02.749Z,12.27
2023-02-18T00:22:00.688Z,12.30
2023-02-18T00:23:01.532Z,12.30
2023-02-18T00:24:01.124Z,12.30
2023-02-18T00:25:00.724Z,12.30
2023-02-18T00:26:05.431Z,12.30
2023-02-18T00:27:00.689Z,12.30
2023-02-18T00:28:00.732Z,12.30
2023-02-18T00:29:01.330Z,12.30
2023-02-18T00:30:00.774Z,12.30
2023-02-18T00:31:09.533Z,12.30
2023-02-18T00:32:00.866Z,12.29
2023-02-18T00:33:00.699Z,12.29
2023-02-18T00:34:02.229Z,12.29
2023-02-18T00:35:00.796Z,12.29
2023-02-18T00:36:03.208Z,12.29
2023-02-18T00:37:00.706Z,12.21
2023-02-18T00:38:00.692Z,12.21
2023-02-18T00:39:02.092Z,12.21
2023-02-18T00:40:00.715Z,12.21
2023-02-18T00:41:00.746Z,12.21
2023-02-18T00:42:00.711Z,12.31
2023-02-18T00:43:00.710Z,12.31
2023-02-18T00:44:00.699Z,12.31
2023-02-18T00:45:00.706Z,12.31
2023-02-18T00:46:00.773Z,12.31
2023-02-18T00:47:00.688Z,12.28
2023-02-18T00:48:00.696Z,12.28
2023-02-18T00:49:01.073Z,12.28
2023-02-18T00:50:00.725Z,12.28
2023-02-18T00:51:01.025Z,12.28
2023-02-18T00:52:00.746Z,12.21
2023-02-18T00:53:00.709Z,12.21
2023-02-18T00:54:00.971Z,12.21
2023-02-18T00:55:00.774Z,12.21
2023-02-18T00:56:00.864Z,12.21
2023-02-18T00:57:00.699Z,12.12
2023-02-18T00:58:00.700Z,12.12
2023-02-18T00:59:00.743Z,12.12
2023-02-18T01:00:00.735Z,12.12
2023-02-18T01:01:00.993Z,12.12
2023-02-18T01:02:00.706Z,12.26
2023-02-18T01:03:00.694Z,12.26
2023-02-18T01:04:00.782Z,12.26
2023-02-18T01:05:00.796Z,12.26
2023-02-18T01:06:00.703Z,12.26
2023-02-18T01:07:00.750Z,12.22
2023-02-18T01:08:01.038Z,12.22
2023-02-18T01:09:00.758Z,12.22
2023-02-18T01:10:00.705Z,12.22
2023-02-18T01:11:01.603Z,12.22
2023-02-18T01:12:00.760Z,12.09
2023-02-18T01:13:01.367Z,12.09
2023-02-18T01:14:01.143Z,12.09
2023-02-18T01:15:00.832Z,12.09
2023-02-18T01:16:00.893Z,12.09
2023-02-18T01:17:00.705Z,12.06
2023-02-18T01:18:00.752Z,12.06
2023-02-18T01:19:00.710Z,12.06
2023-02-18T01:20:00.713Z,12.06
2023-02-18T01:21:00.877Z,12.06
2023-02-18T01:22:01.097Z,12.01
2023-02-18T01:23:00.818Z,12.01
2023-02-18T01:24:00.710Z,12.01
2023-02-18T01:25:00.822Z,12.01
2023-02-18T01:26:00.702Z,12.01
2023-02-18T01:27:00.704Z,12.07
2023-02-18T01:28:00.944Z,12.07
2023-02-18T01:29:00.746Z,12.07
2023-02-18T01:30:01.093Z,12.07
2023-02-18T01:31:05.106Z,12.07
2023-02-18T01:32:00.813Z,12.09
2023-02-18T01:33:01.016Z,12.09
2023-02-18T01:34:00.746Z,12.09
2023-02-18T01:35:01.620Z,12.09
2023-02-18T01:36:01.003Z,12.09
2023-02-18T01:37:00.708Z,11.98
2023-02-18T01:38:00.723Z,11.98
2023-02-18T01:39:00.718Z,11.98
2023-02-18T01:40:00.830Z,11.98
2023-02-18T01:41:00.919Z,11.98
2023-02-18T01:42:00.716Z,11.97
2023-02-18T01:43:01.270Z,11.97
2023-02-18T01:44:10.638Z,11.97
2023-02-18T01:45:10.634Z,11.97
2023-02-18T01:46:05.884Z,11.97
2023-02-18T01:47:00.699Z,11.84
2023-02-18T01:48:10.621Z,11.84
2023-02-18T01:49:00.958Z,11.84
2023-02-18T01:50:00.741Z,11.84
2023-02-18T01:51:10.633Z,11.84
2023-02-18T01:52:04.197Z,11.77
2023-02-18T01:53:01.392Z,11.77
2023-02-18T01:54:01.737Z,11.77
2023-02-18T01:55:00.820Z,11.77
2023-02-18T01:56:04.195Z,11.77
2023-02-18T01:57:02.644Z,11.86
2023-02-18T01:58:01.502Z,11.86
2023-02-18T01:59:02.766Z,11.86
2023-02-18T02:00:04.520Z,11.86
2023-02-18T02:01:00.931Z,11.86
2023-02-18T02:02:00.831Z,11.81
2023-02-18T02:03:00.709Z,11.81
2023-02-18T02:04:00.786Z,11.81
2023-02-18T02:05:00.731Z,11.81
2023-02-18T02:06:00.715Z,11.81
2023-02-18T02:07:00.902Z,11.77
2023-02-18T02:08:02.042Z,11.77
2023-02-18T02:09:02.842Z,11.77
2023-02-18T02:10:00.847Z,11.77
2023-02-18T02:11:10.077Z,11.77
2023-02-18T02:12:01.721Z,11.76
2023-02-18T02:13:08.141Z,11.76
2023-02-18T02:14:04.020Z,11.76
2023-02-18T02:15:05.337Z,11.76
2023-02-18T02:16:06.059Z,11.76
2023-02-18T02:17:01.706Z,11.75
2023-02-18T02:18:00.688Z,11.75
2023-02-18T02:19:08.770Z,11.75
2023-02-18T02:20:10.634Z,11.75
2023-02-18T02:21:08.142Z,11.75
2023-02-18T02:22:04.018Z,11.65
2023-02-18T02:23:10.610Z,11.65
2023-02-18T02:24:10.632Z,11.65
2023-02-18T02:25:07.803Z,11.65
2023-02-18T02:26:10.616Z,11.65
2023-02-18T02:27:10.613Z,11.70
2023-02-18T02:28:10.621Z,11.70
2023-02-18T02:29:10.610Z,11.70
2023-02-18T02:30:08.097Z,11.70
2023-02-18T02:31:01.794Z,11.70
2023-02-18T02:32:10.613Z,11.61
2023-02-18T02:33:10.216Z,11.61
2023-02-18T02:34:10.628Z,11.61
2023-02-18T02:35:08.338Z,11.61
2023-02-18T02:36:04.060Z,11.61
2023-02-18T02:37:07.977Z,11.62
2023-02-18T02:38:00.677Z,11.62
2023-02-18T02:39:00.678Z,11.62
2023-02-18T02:40:10.629Z,11.62
2023-02-18T02:41:09.151Z,11.62
2023-02-18T02:42:08.171Z,11.65
2023-02-18T02:43:04.019Z,11.65
2023-02-18T02:44:00.680Z,11.65
2023-02-18T02:45:08.143Z,11.65
2023-02-18T02:46:05.379Z,11.65
2023-02-18T02:47:03.745Z,11.64
2023-02-18T02:48:03.993Z,11.64
2023-02-18T02:49:01.718Z,11.64
2023-02-18T02:50:10.604Z,11.64
2023-02-18T02:51:00.681Z,11.64
2023-02-18T02:52:04.686Z,11.49
2023-02-18T02:53:03.914Z,11.49
2023-02-18T02:54:09.557Z,11.49
2023-02-18T02:55:02.862Z,11.49
2023-02-18T02:56:00.724Z,11.49
2023-02-18T02:57:10.623Z,11.58
2023-02-18T02:58:00.693Z,11.58
2023-02-18T02:59:02.642Z,11.58
2023-02-18T03:00:01.960Z,11.58
2023-02-18T03:01:00.742Z,11.58
2023-02-18T03:02:07.996Z,11.52
2023-02-18T03:03:04.019Z,11.52
2023-02-18T03:04:07.073Z,11.52
2023-02-18T03:05:10.639Z,11.52
2023-02-18T03:06:09.264Z,11.52
2023-02-18T03:07:10.618Z,11.52
2023-02-18T03:08:01.730Z,11.52
2023-02-18T03:09:10.618Z,11.52
2023-02-18T03:10:10.685Z,11.52
2023-02-18T03:11:09.909Z,11.52
2023-02-18T03:12:05.375Z,11.45
2023-02-18T03:13:04.079Z,11.45
2023-02-18T03:14:01.715Z,11.45
2023-02-18T03:15:10.645Z,11.45
2023-02-18T03:16:10.597Z,11.45
2023-02-18T03:17:04.480Z,11.09
2023-02-18T03:18:04.205Z,11.09
2023-02-18T03:19:00.691Z,11.09
2023-02-18T03:20:04.078Z,11.09
2023-02-18T03:21:05.285Z,11.09
2023-02-18T03:22:10.623Z,10.98
2023-02-18T03:23:03.335Z,10.98
2023-02-18T03:24:04.858Z,10.98
2023-02-18T03:25:02.134Z,10.98
2023-02-18T03:26:03.190Z,10.98
2023-02-18T03:27:06.757Z,10.94
2023-02-18T03:28:03.853Z,10.94
2023-02-18T03:29:01.918Z,10.94
2023-02-18T03:30:03.095Z,10.94
2023-02-18T03:31:04.497Z,10.94
2023-02-18T03:32:02.318Z,10.98
2023-02-18T03:33:02.810Z,10.98
2023-02-18T03:34:03.699Z,10.98
2023-02-18T03:35:03.688Z,10.98
2023-02-18T03:36:00.907Z,10.98
2023-02-18T03:37:01.666Z,10.96
2023-02-18T03:38:05.829Z,10.96
2023-02-18T03:39:00.685Z,10.96
2023-02-18T03:40:01.159Z,10.96
2023-02-18T03:41:00.735Z,10.96
2023-02-18T03:42:00.788Z,10.96
2023-02-18T03:43:00.750Z,10.96
2023-02-18T03:44:01.852Z,10.96
2023-02-18T03:45:00.718Z,10.96
2023-02-18T03:46:01.394Z,10.96
2023-02-18T03:47:00.732Z,10.93
2023-02-18T03:48:00.706Z,10.93
2023-02-18T03:49:00.714Z,10.93
2023-02-18T03:50:00.822Z,10.93
2023-02-18T03:51:00.715Z,10.93
2023-02-18T03:52:00.790Z,10.90
2023-02-18T03:53:00.729Z,10.90
2023-02-18T03:54:00.805Z,10.90
2023-02-18T03:55:00.747Z,10.90
2023-02-18T03:56:00.708Z,10.90
2023-02-18T03:57:00.716Z,10.91
2023-02-18T03:58:00.702Z,10.91
2023-02-18T03:59:00.761Z,10.91
2023-02-18T04:00:00.766Z,10.91
2023-02-18T04:01:00.858Z,10.91
2023-02-18T04:02:00.720Z,10.86
2023-02-18T04:03:00.709Z,10.86
2023-02-18T04:04:00.934Z,10.86
2023-02-18T04:05:00.724Z,10.86
2023-02-18T04:06:00.824Z,10.86
2023-02-18T04:07:00.716Z,10.87
2023-02-18T04:08:00.690Z,10.87
2023-02-18T04:09:00.827Z,10.87
2023-02-18T04:10:00.753Z,10.87
2023-02-18T04:11:00.729Z,10.87
2023-02-18T04:12:00.681Z,10.86
2023-02-18T04:13:00.673Z,10.86
2023-02-18T04:14:00.726Z,10.86
2023-02-18T04:15:00.745Z,10.86
2023-02-18T04:16:00.736Z,10.86
2023-02-18T04:17:00.755Z,10.89
2023-02-18T04:18:00.693Z,10.89
2023-02-18T04:19:00.691Z,10.89
2023-02-18T04:20:00.707Z,10.89
2023-02-18T04:21:00.712Z,10.89
2023-02-18T04:22:00.983Z,10.85
2023-02-18T04:23:00.695Z,10.85
2023-02-18T04:24:00.734Z,10.85
2023-02-18T04:25:00.702Z,10.85
2023-02-18T04:26:00.689Z,10.85
2023-02-18T04:27:00.713Z,10.86
2023-02-18T04:28:00.726Z,10.86
2023-02-18T04:29:00.699Z,10.86
2023-02-18T04:30:00.788Z,10.86
2023-02-18T04:31:00.767Z,10.86
2023-02-18T04:32:00.780Z,10.83
2023-02-18T04:33:00.687Z,10.83
2023-02-18T04:34:00.737Z,10.83
2023-02-18T04:35:00.789Z,10.83
2023-02-18T04:36:00.716Z,10.83
2023-02-18T04:37:00.710Z,10.83
2023-02-18T04:38:00.696Z,10.71
2023-02-18T04:39:00.707Z,10.71
2023-02-18T04:40:00.899Z,10.71
2023-02-18T04:41:00.722Z,10.71
2023-02-18T04:42:00.695Z,10.71
2023-02-18T04:43:01.221Z,10.81
2023-02-18T04:44:00.687Z,10.81
2023-02-18T04:45:00.697Z,10.81
2023-02-18T04:46:00.730Z,10.81
2023-02-18T04:47:01.101Z,10.81
2023-02-18T04:48:00.700Z,10.81
2023-02-18T04:49:00.709Z,10.81
2023-02-18T04:50:00.762Z,10.81
2023-02-18T04:51:00.932Z,10.81
2023-02-18T04:52:01.172Z,10.85
2023-02-18T04:53:00.751Z,10.85
2023-02-18T04:54:00.705Z,10.85
2023-02-18T04:55:00.723Z,10.85
2023-02-18T04:56:00.709Z,10.85
2023-02-18T04:57:00.702Z,10.85
2023-02-18T04:58:00.759Z,10.82
2023-02-18T04:59:00.708Z,10.82
2023-02-18T05:00:00.698Z,10.82
2023-02-18T05:01:01.486Z,10.82
2023-02-18T05:02:00.748Z,10.82
2023-02-18T05:03:00.746Z,10.86
2023-02-18T05:04:00.760Z,10.86
2023-02-18T05:05:00.706Z,10.86
2023-02-18T05:06:00.702Z,10.86
2023-02-18T05:07:00.727Z,10.86
2023-02-18T05:08:01.024Z,10.93
2023-02-18T05:09:00.706Z,10.93
2023-02-18T05:10:00.740Z,10.93
2023-02-18T05:11:04.203Z,10.93
2023-02-18T05:12:00.705Z,10.93
2023-02-18T05:13:00.774Z,10.96
2023-02-18T05:14:00.756Z,10.96
2023-02-18T05:15:00.712Z,10.96
2023-02-18T05:16:00.789Z,10.96
2023-02-18T05:17:00.761Z,10.96
2023-02-18T05:18:00.701Z,10.96
2023-02-18T05:19:00.730Z,10.96
2023-02-18T05:20:00.850Z,10.96
2023-02-18T05:21:00.702Z,10.96
2023-02-18T05:22:00.713Z,10.96
2023-02-18T05:23:00.723Z,10.97
2023-02-18T05:24:00.717Z,10.97
2023-02-18T05:25:00.730Z,10.97
2023-02-18T05:26:00.714Z,10.97
2023-02-18T05:27:00.798Z,10.97
2023-02-18T05:28:00.725Z,11.03
2023-02-18T05:29:00.697Z,11.03
2023-02-18T05:30:00.814Z,11.03
2023-02-18T05:31:00.819Z,11.03
2023-02-18T05:32:00.845Z,11.03
2023-02-18T05:33:00.700Z,11.08
2023-02-18T05:34:01.860Z,11.08
2023-02-18T05:35:00.743Z,11.08
2023-02-18T05:36:00.747Z,11.08
2023-02-18T05:37:00.791Z,11.08
2023-02-18T05:38:00.708Z,11.23
2023-02-18T05:39:00.727Z,11.23
2023-02-18T05:40:00.794Z,11.23
2023-02-18T05:41:00.690Z,11.23
2023-02-18T05:42:00.728Z,11.23
2023-02-18T05:43:00.697Z,11.24
2023-02-18T05:44:00.754Z,11.24
2023-02-18T05:45:00.820Z,11.24
2023-02-18T05:46:00.767Z,11.24
2023-02-18T05:47:02.485Z,11.27
2023-02-18T05:48:00.707Z,11.27
2023-02-18T05:49:00.730Z,11.27
2023-02-18T05:50:00.893Z,11.27
2023-02-18T05:51:00.694Z,11.27
2023-02-18T05:52:00.762Z,11.27
2023-02-18T05:53:00.796Z,11.36
2023-02-18T05:54:00.708Z,11.36
2023-02-18T05:55:00.733Z,11.36
2023-02-18T05:56:00.704Z,11.36
2023-02-18T05:57:00.707Z,11.36
2023-02-18T05:58:00.716Z,11.30
2023-02-18T05:59:00.712Z,11.30
2023-02-18T06:00:00.715Z,11.30
2023-02-18T06:01:00.698Z,11.30
2023-02-18T06:02:00.762Z,11.30
2023-02-18T06:03:00.863Z,11.38
2023-02-18T06:04:00.703Z,11.38
2023-02-18T06:05:00.788Z,11.38
2023-02-18T06:06:00.982Z,11.38
2023-02-18T06:07:00.700Z,11.38
2023-02-18T06:08:00.700Z,11.36
2023-02-18T06:09:00.901Z,11.36
2023-02-18T06:10:00.756Z,11.36
2023-02-18T06:11:00.842Z,11.36
2023-02-18T06:12:01.073Z,11.43
2023-02-18T06:13:00.703Z,11.43
2023-02-18T06:14:01.097Z,11.43
2023-02-18T06:15:00.737Z,11.43
2023-02-18T06:16:00.770Z,11.43
2023-02-18T06:17:00.753Z,11.43
2023-02-18T06:18:00.702Z,11.52
2023-02-18T06:19:00.696Z,11.52
2023-02-18T06:20:00.770Z,11.52
2023-02-18T06:21:00.749Z,11.52
2023-02-18T06:22:00.722Z,11.52
2023-02-18T06:23:00.712Z,11.54
2023-02-18T06:24:00.692Z,11.54
2023-02-18T06:25:00.796Z,11.54
2023-02-18T06:26:00.813Z,11.54
2023-02-18T06:27:01.038Z,11.84
2023-02-18T06:28:00.718Z,11.84
2023-02-18T06:29:00.763Z,11.84
2023-02-18T06:30:00.778Z,11.84
2023-02-18T06:31:00.812Z,11.84
2023-02-18T06:32:00.837Z,11.84
2023-02-18T06:33:00.696Z,11.98
2023-02-18T06:34:00.702Z,11.98
2023-02-18T06:35:00.698Z,11.98
2023-02-18T06:36:02.718Z,11.98
2023-02-18T06:37:01.456Z,11.98
2023-02-18T06:38:00.723Z,11.86
2023-02-18T06:39:02.101Z,11.86
2023-02-18T06:40:00.720Z,11.86
2023-02-18T06:41:00.813Z,11.86
2023-02-18T06:42:00.698Z,11.86
2023-02-18T06:43:00.703Z,11.94
2023-02-18T06:44:00.730Z,11.94
2023-02-18T06:45:00.717Z,11.94
2023-02-18T06:46:00.930Z,11.94
2023-02-18T06:47:00.711Z,11.94
2023-02-18T06:48:00.695Z,11.99
2023-02-18T06:49:00.706Z,11.99
2023-02-18T06:50:00.824Z,11.99
2023-02-18T06:51:00.724Z,11.99
2023-02-18T06:52:00.960Z,11.99
2023-02-18T06:53:00.710Z,11.93
2023-02-18T06:54:00.689Z,11.93
2023-02-18T06:55:00.735Z,11.93
2023-02-18T06:56:00.690Z,11.93
2023-02-18T06:57:00.705Z,11.93
2023-02-18T06:58:00.728Z,12.08
2023-02-18T06:59:00.691Z,12.08
2023-02-18T07:00:00.705Z,12.08
2023-02-18T07:01:00.788Z,12.08
2023-02-18T07:02:00.736Z,12.08
2023-02-18T07:03:00.980Z,12.05
2023-02-18T07:04:00.754Z,12.05
2023-02-18T07:05:00.717Z,12.05
2023-02-18T07:06:00.705Z,12.05
2023-02-18T07:07:00.778Z,12.05
2023-02-18T07:08:00.974Z,11.99
2023-02-18T07:09:00.706Z,11.99
2023-02-18T07:10:00.848Z,11.99
2023-02-18T07:11:00.752Z,11.99
2023-02-18T07:12:00.694Z,11.99
2023-02-18T07:13:00.717Z,11.98
2023-02-18T07:14:00.869Z,11.98
2023-02-18T07:15:00.762Z,11.98
2023-02-18T07:16:00.732Z,11.98
2023-02-18T07:17:00.737Z,11.98
2023-02-18T07:18:00.808Z,12.05
2023-02-18T07:19:00.774Z,12.05
2023-02-18T07:20:00.810Z,12.05
2023-02-18T07:21:00.855Z,12.05
2023-02-18T07:22:00.707Z,12.05
2023-02-18T07:23:00.691Z,11.94
2023-02-18T07:24:00.709Z,11.94
2023-02-18T07:25:00.751Z,11.94
2023-02-18T07:26:05.387Z,11.94
2023-02-18T07:27:00.748Z,11.94
2023-02-18T07:28:00.690Z,11.90
2023-02-18T07:29:00.736Z,11.90
2023-02-18T07:30:00.789Z,11.90
2023-02-18T07:31:00.890Z,11.90
2023-02-18T07:32:00.712Z,11.90
2023-02-18T07:33:02.996Z,11.98
2023-02-18T07:34:00.692Z,11.98
2023-02-18T07:35:00.870Z,11.98
2023-02-18T07:36:01.247Z,11.98
2023-02-18T07:37:00.745Z,11.98
2023-02-18T07:38:00.721Z,11.98
2023-02-18T07:39:00.808Z,11.98
2023-02-18T07:40:00.736Z,11.98
2023-02-18T07:41:00.719Z,11.98
2023-02-18T07:42:01.954Z,12.05
2023-02-18T07:43:00.685Z,12.05
2023-02-18T07:44:00.725Z,12.05
2023-02-18T07:45:00.710Z,12.05
2023-02-18T07:46:04.633Z,12.05
2023-02-18T07:47:01.098Z,12.05
2023-02-18T08:05:00.749Z,11.63
2023-02-18T08:06:01.612Z,11.69
2023-02-18T08:07:00.699Z,11.69
2023-02-18T08:08:00.692Z,11.69
2023-02-18T08:09:00.788Z,11.69
2023-02-18T08:10:00.693Z,11.69
2023-02-18T08:11:10.000Z,11.73
2023-02-18T08:12:00.695Z,11.73
2023-02-18T08:13:00.689Z,11.73
2023-02-18T08:14:00.798Z,11.73
2023-02-18T08:15:00.694Z,11.73
2023-02-18T08:16:00.793Z,11.80
2023-02-18T08:17:00.794Z,11.80
2023-02-18T08:18:01.042Z,11.80
2023-02-18T08:19:01.084Z,11.80
2023-02-18T08:20:00.715Z,11.80
2023-02-18T08:21:00.718Z,11.85
2023-02-18T08:22:01.080Z,11.85
2023-02-18T08:23:00.707Z,11.85
2023-02-18T08:24:00.756Z,11.85
2023-02-18T08:25:00.833Z,11.85
2023-02-18T08:26:00.706Z,11.85
2023-02-18T08:27:01.678Z,11.85
2023-02-18T08:28:00.743Z,11.85
2023-02-18T08:29:00.912Z,11.85
2023-02-18T08:30:00.770Z,11.85
2023-02-18T08:31:00.935Z,11.89
2023-02-18T08:32:00.793Z,11.89
2023-02-18T08:33:00.707Z,11.89
2023-02-18T08:34:00.764Z,11.89
2023-02-18T08:35:01.013Z,11.89
2023-02-18T08:36:00.700Z,11.99
2023-02-18T08:37:00.969Z,11.99
2023-02-18T08:38:00.735Z,11.99
2023-02-18T08:39:00.799Z,11.99
2023-02-18T08:40:01.329Z,11.99
2023-02-18T08:41:03.165Z,12.07
2023-02-18T08:42:00.744Z,12.07
2023-02-18T08:43:00.754Z,12.07
2023-02-18T08:44:00.712Z,12.07
2023-02-18T08:45:00.703Z,12.07
2023-02-18T08:46:00.898Z,12.20
2023-02-18T08:47:00.706Z,12.20
2023-02-18T08:48:16.886Z,12.20
2023-02-18T08:49:00.819Z,12.20
2023-02-18T08:50:00.705Z,12.20
2023-02-18T08:51:09.781Z,12.20
2023-02-18T08:52:00.707Z,12.20
2023-02-18T08:53:01.065Z,12.20
2023-02-18T08:54:01.075Z,12.20
2023-02-18T08:55:00.703Z,12.20
2023-02-18T08:56:00.687Z,12.19
2023-02-18T08:57:00.740Z,12.19
2023-02-18T08:58:00.736Z,12.19
2023-02-18T08:59:00.728Z,12.19
2023-02-18T09:00:00.705Z,12.19
2023-02-18T09:01:01.116Z,12.31
2023-02-18T09:02:00.689Z,12.31
2023-02-18T09:03:00.699Z,12.31
2023-02-18T09:04:00.735Z,12.31
2023-02-18T09:05:00.804Z,12.31
2023-02-18T09:06:01.138Z,12.36
2023-02-18T09:07:01.784Z,12.36
2023-02-18T09:08:00.744Z,12.36
2023-02-18T09:09:00.695Z,12.36
2023-02-18T09:10:00.844Z,12.36
2023-02-18T09:11:01.993Z,12.36
2023-02-18T09:12:00.721Z,12.36
2023-02-18T09:13:00.726Z,12.36
2023-02-18T09:14:00.698Z,12.36
2023-02-18T09:15:01.293Z,12.36
2023-02-18T09:16:10.716Z,12.40
2023-02-18T09:17:00.723Z,12.40
2023-02-18T09:18:00.715Z,12.40
2023-02-18T09:19:00.735Z,12.40
2023-02-18T09:20:00.809Z,12.40
2023-02-18T09:21:01.066Z,12.47
2023-02-18T09:22:00.905Z,12.47
2023-02-18T09:23:00.694Z,12.47
2023-02-18T09:24:00.888Z,12.47
2023-02-18T09:25:00.723Z,12.47
2023-02-18T09:26:03.361Z,12.42
2023-02-18T09:27:00.718Z,12.42
2023-02-18T09:28:00.697Z,12.42
2023-02-18T09:29:00.696Z,12.42
2023-02-18T09:30:00.812Z,12.42
2023-02-18T09:31:04.877Z,12.55
2023-02-18T09:32:01.490Z,12.55
2023-02-18T09:33:00.723Z,12.55
2023-02-18T09:34:03.034Z,12.55
2023-02-18T09:35:01.242Z,12.55
2023-02-18T09:36:00.705Z,12.66
2023-02-18T09:37:00.792Z,12.66
2023-02-18T09:38:00.705Z,12.66
2023-02-18T09:39:00.709Z,12.66
2023-02-18T09:40:00.768Z,12.66
2023-02-18T09:41:02.058Z,12.78
2023-02-18T09:42:02.432Z,12.78
2023-02-18T09:43:00.788Z,12.78
2023-02-18T09:44:04.076Z,12.78
2023-02-18T09:45:02.814Z,12.78
2023-02-18T09:46:02.146Z,12.84
2023-02-18T09:47:08.045Z,12.84
2023-02-18T09:48:01.058Z,12.84
2023-02-18T09:49:02.464Z,12.84
2023-02-18T09:50:10.682Z,12.84
2023-02-18T09:51:00.835Z,12.91
2023-02-18T09:52:05.354Z,12.91
2023-02-18T09:53:01.725Z,12.91
2023-02-18T09:54:00.738Z,12.91
2023-02-18T09:55:10.709Z,12.91
2023-02-18T09:56:00.847Z,12.99
2023-02-18T09:57:01.934Z,12.99
2023-02-18T09:58:03.532Z,12.99
2023-02-18T09:59:03.493Z,12.99
2023-02-18T10:00:04.156Z,12.99
2023-02-18T10:01:01.718Z,12.98
2023-02-18T10:02:02.385Z,12.98
2023-02-18T10:03:03.118Z,12.98
2023-02-18T10:04:09.276Z,12.98
2023-02-18T10:05:01.520Z,12.98
2023-02-18T10:06:06.611Z,13.07
2023-02-18T10:07:01.230Z,13.07
2023-02-18T10:08:04.480Z,13.07
2023-02-18T10:09:02.852Z,13.07
2023-02-18T10:10:02.857Z,13.07
2023-02-18T10:11:00.984Z,13.18
2023-02-18T10:12:07.042Z,13.18
2023-02-18T10:13:01.751Z,13.18
2023-02-18T10:14:01.426Z,13.18
2023-02-18T10:15:01.001Z,13.18
2023-02-18T10:16:02.215Z,13.33
2023-02-18T10:17:00.878Z,13.33
2023-02-18T10:18:00.932Z,13.33
2023-02-18T10:19:04.807Z,13.33
2023-02-18T10:20:04.689Z,13.33
2023-02-18T10:21:06.542Z,13.48
2023-02-18T10:22:02.916Z,13.48
2023-02-18T10:23:02.018Z,13.48
2023-02-18T10:24:10.615Z,13.48
2023-02-18T10:25:02.646Z,13.48
2023-02-18T10:26:03.728Z,13.63
2023-02-18T10:27:02.868Z,13.63
2023-02-18T10:28:00.704Z,13.63
2023-02-18T10:29:00.833Z,13.63
2023-02-18T10:30:10.674Z,13.63
2023-02-18T10:31:09.360Z,13.66
2023-02-18T10:32:04.128Z,13.66
2023-02-18T10:33:10.651Z,13.66
2023-02-18T10:34:04.012Z,13.66
2023-02-18T10:35:10.646Z,13.66
2023-02-18T10:36:08.108Z,13.78
2023-02-18T10:37:08.107Z,13.78
2023-02-18T10:38:00.725Z,13.78
2023-02-18T10:39:08.804Z,13.78
2023-02-18T10:40:00.680Z,13.78
2023-02-18T10:41:10.801Z,13.79
2023-02-18T10:42:10.645Z,13.79
2023-02-18T10:43:08.033Z,13.79
2023-02-18T10:44:10.597Z,13.79
2023-02-18T10:45:10.643Z,13.79
2023-02-18T10:46:13.237Z,13.68
2023-02-18T10:47:10.617Z,13.68
2023-02-18T10:48:03.955Z,13.68
2023-02-18T10:49:08.427Z,13.68
2023-02-18T10:50:07.982Z,13.68
2023-02-18T10:51:03.969Z,13.69
2023-02-18T10:52:02.455Z,13.69
2023-02-18T10:53:07.132Z,13.69
2023-02-18T10:54:00.706Z,13.69
2023-02-18T10:55:00.727Z,13.69
2023-02-18T10:56:00.765Z,13.65
2023-02-18T10:57:00.690Z,13.65
2023-02-18T10:58:00.752Z,13.65
2023-02-18T10:59:05.158Z,13.65
2023-02-18T11:00:03.815Z,13.65
2023-02-18T11:01:05.264Z,13.75
2023-02-18T11:02:10.669Z,13.75
2023-02-18T11:03:08.930Z,13.75
2023-02-18T11:04:10.605Z,13.75
2023-02-18T11:05:05.167Z,13.75
2023-02-18T11:06:00.704Z,13.74
2023-02-18T11:07:05.407Z,13.74
2023-02-18T11:08:00.897Z,13.74
2023-02-18T11:09:01.122Z,13.74
2023-02-18T11:10:08.946Z,13.74
2023-02-18T11:11:10.647Z,13.94
2023-02-18T11:12:08.177Z,13.94
2023-02-18T11:13:02.273Z,13.94
2023-02-18T11:14:01.831Z,13.94
2023-02-18T11:15:04.477Z,13.94
2023-02-18T11:16:04.062Z,14.07
2023-02-18T11:17:08.492Z,14.07
2023-02-18T11:18:10.613Z,14.07
2023-02-18T11:19:00.700Z,14.07
2023-02-18T11:20:07.770Z,14.07
2023-02-18T11:21:02.221Z,14.22
2023-02-18T11:22:08.264Z,14.22
2023-02-18T11:23:10.630Z,14.22
2023-02-18T11:24:09.067Z,14.22
2023-02-18T11:25:02.292Z,14.22
2023-02-18T11:26:02.424Z,14.40
2023-02-18T11:27:00.732Z,14.40
2023-02-18T11:28:00.694Z,14.40
2023-02-18T11:29:04.406Z,14.40
2023-02-18T11:30:04.024Z,14.40
2023-02-18T11:31:01.617Z,14.51
2023-02-18T11:32:00.878Z,14.51
2023-02-18T11:33:10.628Z,14.51
2023-02-18T11:34:01.935Z,14.51
2023-02-18T11:35:02.125Z,14.51
2023-02-18T11:36:09.537Z,14.46
2023-02-18T11:37:09.655Z,14.46
2023-02-18T11:38:01.782Z,14.46
2023-02-18T11:39:05.497Z,14.46
2023-02-18T11:40:00.751Z,14.46
2023-02-18T11:41:05.282Z,14.40
2023-02-18T11:42:03.720Z,14.40
2023-02-18T11:43:04.616Z,14.40
2023-02-18T11:44:01.767Z,14.40
2023-02-18T11:45:00.726Z,14.40
2023-02-18T11:46:09.253Z,14.55
2023-02-18T11:47:02.338Z,14.55
2023-02-18T11:48:05.636Z,14.55
2023-02-18T11:49:10.608Z,14.55
2023-02-18T11:50:10.666Z,14.55
2023-02-18T11:51:01.332Z,14.61
2023-02-18T11:52:10.616Z,14.61
2023-02-18T11:53:10.624Z,14.61
2023-02-18T11:54:02.496Z,14.61
2023-02-18T11:55:04.257Z,14.61
2023-02-18T11:56:02.576Z,14.40
2023-02-18T11:57:02.311Z,14.40
2023-02-18T11:58:03.444Z,14.40
2023-02-18T11:59:01.632Z,14.40
2023-02-18T12:00:01.505Z,14.40
2023-02-18T12:01:02.290Z,14.36
2023-02-18T12:02:10.723Z,14.36
2023-02-18T12:03:02.082Z,14.36
2023-02-18T12:04:06.501Z,14.36
2023-02-18T12:05:02.840Z,14.36
2023-02-18T12:06:02.179Z,14.48
2023-02-18T12:07:01.706Z,14.48
2023-02-18T12:08:00.690Z,14.48
2023-02-18T12:09:05.002Z,14.48
2023-02-18T12:10:04.112Z,14.48
2023-02-18T12:11:02.860Z,14.57
2023-02-18T12:12:04.592Z,14.57
2023-02-18T12:13:10.615Z,14.57
2023-02-18T12:14:00.789Z,14.57
2023-02-18T12:15:00.796Z,14.57
2023-02-18T12:16:10.694Z,14.68
2023-02-18T12:17:00.689Z,14.68
2023-02-18T12:18:03.983Z,14.68
2023-02-18T12:19:07.683Z,14.68
2023-02-18T12:20:03.986Z,14.68
2023-02-18T12:21:08.364Z,14.59
2023-02-18T12:22:09.379Z,14.59
2023-02-18T12:23:07.591Z,14.59
2023-02-18T12:24:01.732Z,14.59
2023-02-18T12:25:10.655Z,14.59
2023-02-18T12:26:10.612Z,14.64
2023-02-18T12:27:10.623Z,14.64
2023-02-18T12:28:10.617Z,14.64
2023-02-18T12:29:10.626Z,14.64
2023-02-18T12:30:10.684Z,14.64
2023-02-18T12:31:11.032Z,14.85
2023-02-18T12:32:10.685Z,14.85
2023-02-18T12:33:10.623Z,14.85
2023-02-18T12:34:09.777Z,14.85
2023-02-18T12:35:01.726Z,14.85
2023-02-18T12:36:10.934Z,14.82
2023-02-18T12:37:10.231Z,14.82
2023-02-18T12:38:01.723Z,14.82
2023-02-18T12:39:00.689Z,14.82
2023-02-18T12:40:04.037Z,14.82
2023-02-18T12:41:00.691Z,14.84
2023-02-18T12:42:10.623Z,14.84
2023-02-18T12:43:09.125Z,14.84
2023-02-18T12:44:10.621Z,14.84
2023-02-18T12:45:01.735Z,14.84
2023-02-18T12:46:10.661Z,14.89
2023-02-18T12:47:10.632Z,14.89
2023-02-18T12:48:07.647Z,14.89
2023-02-18T12:49:00.696Z,14.89
2023-02-18T12:50:03.978Z,14.89
2023-02-18T12:51:07.667Z,14.87
2023-02-18T12:52:08.215Z,14.87
2023-02-18T12:53:11.099Z,14.87
2023-02-18T12:54:10.622Z,14.87
2023-02-18T12:55:10.620Z,14.87
2023-02-18T12:56:08.089Z,14.87
2023-02-18T12:57:10.621Z,14.87
2023-02-18T12:58:10.621Z,14.87
2023-02-18T12:59:03.985Z,14.87
2023-02-18T13:00:10.621Z,14.87
2023-02-18T13:01:10.664Z,14.83
2023-02-18T13:02:10.612Z,14.83
2023-02-18T13:03:10.702Z,14.83
2023-02-18T13:04:10.630Z,14.83
2023-02-18T13:05:10.613Z,14.83
2023-02-18T13:06:11.006Z,14.75
2023-02-18T13:07:03.970Z,14.75
2023-02-18T13:08:01.756Z,14.75
2023-02-18T13:09:10.623Z,14.75